Time;durP1;ratioP1;P1;durP2;ratioP2;P2;SDS_P1;SDS_P2;PMS_P1;PMS_P2;Temp;Humidity;BMP_temperature;BMP_pressure;BME280_temperature;BME280_humidity;BME280_pressure;Samples;Min_cycle;Max_cycle;Signal;HPM_P1;HPM_P2
2021/01/07 00:01:17;;;;;;;10.63;5.88;;;3.40;88.40;;;;;;5062838;28;20074;-60
2021/01/07 00:03:43;;;;;;;7.68;5.05;;;3.40;88.30;;;;;;5080963;28;20043;-60
2021/01/07 00:06:13;;;;;;;7.63;5.38;;;3.40;88.10;;;;;;5077008;28;20136;-60
2021/01/07 00:08:39;;;;;;;7.68;5.65;;;3.40;88.20;;;;;;5072030;28;20044;-60
2021/01/07 00:11:06;;;;;;;7.93;5.28;;;3.40;88.00;;;;;;5076010;28;20081;-60
2021/01/07 00:13:32;;;;;;;8.85;5.78;;;3.40;87.90;;;;;;5080771;28;20028;-60
2021/01/07 00:15:58;;;;;;;8.13;5.38;;;3.40;87.90;;;;;;5081073;28;20107;-60
2021/01/07 00:18:24;;;;;;;7.53;5.00;;;3.50;88.00;;;;;;5080457;28;20067;-60
2021/01/07 00:20:50;;;;;;;8.57;5.40;;;3.50;87.70;;;;;;5081151;28;20039;-60
2021/01/07 00:23:15;;;;;;;6.35;4.82;;;3.50;87.20;;;;;;5080426;28;20571;-60
2021/01/07 00:25:50;;;;;;;8.85;4.95;;;3.50;87.30;;;;;;5080263;28;20860;-61
2021/01/07 00:28:17;;;;;;;7.78;5.10;;;3.50;86.70;;;;;;5080752;28;20040;-61
2021/01/07 00:30:45;;;;;;;8.45;5.60;;;3.60;87.00;;;;;;5075822;28;20051;-60
2021/01/07 00:33:12;;;;;;;6.10;4.45;;;3.60;86.80;;;;;;5080357;28;20036;-61
2021/01/07 00:35:38;;;;;;;6.85;4.85;;;3.60;86.90;;;;;;5080080;28;20032;-60
2021/01/07 00:38:04;;;;;;;6.20;4.53;;;3.60;86.90;;;;;;5077441;28;20036;-60
2021/01/07 00:40:31;;;;;;;7.85;5.18;;;3.50;86.60;;;;;;5079867;28;20111;-60
2021/01/07 00:42:57;;;;;;;7.00;4.93;;;3.50;86.70;;;;;;5080335;28;20038;-61
2021/01/07 00:45:23;;;;;;;7.13;4.97;;;3.50;87.10;;;;;;5079961;28;20036;-60
2021/01/07 00:47:49;;;;;;;6.47;4.60;;;3.50;86.80;;;;;;5080465;28;20748;-60
2021/01/07 00:50:15;;;;;;;8.20;5.45;;;3.60;87.10;;;;;;5080393;28;20036;-61
2021/01/07 00:52:41;;;;;;;7.20;4.50;;;3.60;86.90;;;;;;5062219;28;20058;-60
2021/01/07 00:55:11;;;;;;;6.70;4.68;;;3.60;87.00;;;;;;5061379;28;20028;-60
2021/01/07 00:57:38;;;;;;;6.45;4.38;;;3.60;86.50;;;;;;5079918;28;20028;-60
2021/01/07 01:00:08;;;;;;;6.35;4.55;;;3.60;86.80;;;;;;5080175;28;20411;-60
2021/01/07 01:02:34;;;;;;;5.88;4.60;;;3.60;86.80;;;;;;5079402;28;20052;-60
2021/01/07 01:05:00;;;;;;;6.22;4.70;;;3.40;86.80;;;;;;5079672;28;20035;-60
2021/01/07 01:07:26;;;;;;;5.90;4.28;;;3.40;87.40;;;;;;5078349;28;20579;-60
2021/01/07 01:09:53;;;;;;;7.30;4.90;;;3.40;86.60;;;;;;5076344;28;20031;-60
2021/01/07 01:12:19;;;;;;;6.35;4.40;;;3.40;86.90;;;;;;5080263;28;20058;-60
2021/01/07 01:14:45;;;;;;;6.85;4.53;;;3.50;86.60;;;;;;5079783;28;20038;-60
2021/01/07 01:17:10;;;;;;;7.28;4.95;;;3.50;86.70;;;;;;5079270;28;20736;-60
2021/01/07 01:19:36;;;;;;;5.45;4.50;;;3.50;86.60;;;;;;5061585;28;20666;-60
2021/01/07 01:22:02;;;;;;;6.18;4.38;;;3.50;86.10;;;;;;5076793;28;20036;-60
2021/01/07 01:24:28;;;;;;;6.70;5.03;;;3.50;86.30;;;;;;5079067;28;20120;-60
2021/01/07 01:27:01;;;;;;;5.95;4.20;;;3.50;85.90;;;;;;5079318;28;20043;-60
2021/01/07 01:29:27;;;;;;;6.60;4.22;;;3.50;86.00;;;;;;5079134;28;20150;-60
2021/01/07 01:31:53;;;;;;;5.50;3.70;;;3.40;86.20;;;;;;5075387;28;20056;-60
2021/01/07 01:34:20;;;;;;;6.00;3.90;;;3.40;86.20;;;;;;5061025;28;20483;-60
2021/01/07 01:36:46;;;;;;;5.68;3.60;;;3.40;86.30;;;;;;5079264;28;20031;-61
2021/01/07 01:39:12;;;;;;;6.65;4.38;;;3.40;86.40;;;;;;5079748;28;20685;-60
2021/01/07 01:41:48;;;;;;;4.82;3.38;;;3.40;86.10;;;;;;5079902;28;20086;-60
2021/01/07 01:44:16;;;;;;;5.68;3.78;;;3.40;86.10;;;;;;5079439;28;20100;-60
2021/01/07 01:46:41;;;;;;;4.43;3.35;;;3.40;86.10;;;;;;5078467;28;20047;-60
2021/01/07 01:49:09;;;;;;;5.30;3.67;;;3.40;85.80;;;;;;5079374;28;20063;-60
2021/01/07 01:51:35;;;;;;;4.78;3.22;;;3.30;85.80;;;;;;5076135;28;20073;-60
2021/01/07 01:54:02;;;;;;;5.95;3.55;;;3.40;85.90;;;;;;5077014;28;20511;-60
2021/01/07 01:56:28;;;;;;;5.30;3.78;;;3.40;84.90;;;;;;5078440;28;20077;-60
2021/01/07 01:58:54;;;;;;;5.22;3.30;;;3.50;85.60;;;;;;5079039;28;20745;-61
2021/01/07 02:01:20;;;;;;;5.75;3.60;;;3.50;85.40;;;;;;5079360;28;20131;-60
2021/01/07 02:03:47;;;;;;;5.75;2.95;;;3.50;84.80;;;;;;5051253;28;20040;-60
2021/01/07 02:06:17;;;;;;;5.20;3.80;;;3.50;84.70;;;;;;5069337;28;20360;-60
2021/01/07 02:08:44;;;;;;;5.95;3.53;;;3.50;85.00;;;;;;5079085;28;20036;-60
2021/01/07 02:11:17;;;;;;;5.88;3.90;;;3.50;84.50;;;;;;5075471;28;20031;-60
2021/01/07 02:13:45;;;;;;;6.35;3.92;;;3.40;85.40;;;;;;5078778;28;20577;-60
2021/01/07 02:16:11;;;;;;;7.03;4.70;;;3.50;85.60;;;;;;5078451;28;20554;-61
2021/01/07 02:18:37;;;;;;;7.03;4.55;;;3.50;85.30;;;;;;5078584;28;20458;-60
2021/01/07 02:21:03;;;;;;;6.72;4.55;;;3.60;85.10;;;;;;5079026;28;20107;-60
2021/01/07 02:23:29;;;;;;;8.70;4.97;;;3.50;85.10;;;;;;5079006;28;20040;-60
2021/01/07 02:25:56;;;;;;;9.63;5.40;;;3.50;85.10;;;;;;5077829;28;20051;-60
2021/01/07 02:28:22;;;;;;;7.15;4.47;;;3.50;84.80;;;;;;5078894;28;20039;-60
2021/01/07 02:30:48;;;;;;;9.93;5.63;;;3.50;85.20;;;;;;5078673;28;20057;-60
2021/01/07 02:33:14;;;;;;;9.35;5.35;;;3.50;84.90;;;;;;5078170;28;20036;-61
2021/01/07 02:35:40;;;;;;;9.20;5.80;;;3.50;84.90;;;;;;5078289;28;20064;-60
2021/01/07 02:38:06;;;;;;;10.73;6.30;;;3.50;84.90;;;;;;5078879;28;20032;-60
2021/01/07 02:40:33;;;;;;;11.68;6.68;;;3.50;85.00;;;;;;5077880;28;20043;-60
2021/01/07 02:43:02;;;;;;;10.27;6.07;;;3.60;85.20;;;;;;5078778;28;20028;-60
2021/01/07 02:45:29;;;;;;;11.90;7.03;;;3.60;84.70;;;;;;5078307;28;20039;-60
2021/01/07 02:47:54;;;;;;;12.65;6.80;;;3.60;84.80;;;;;;5078405;28;20110;-60
2021/01/07 02:50:20;;;;;;;11.52;7.20;;;3.50;84.90;;;;;;5078694;28;20213;-60
2021/01/07 02:52:45;;;;;;;11.65;6.72;;;3.50;85.00;;;;;;5078415;28;20024;-60
2021/01/07 02:55:11;;;;;;;12.23;7.38;;;3.50;84.90;;;;;;5077675;28;20043;-60
2021/01/07 02:57:37;;;;;;;12.82;7.18;;;3.40;85.20;;;;;;5075006;28;20061;-60
2021/01/07 03:00:04;;;;;;;11.13;6.75;;;3.50;84.90;;;;;;5078598;28;20097;-60
2021/01/07 03:02:30;;;;;;;10.85;6.55;;;3.50;85.00;;;;;;5075736;28;20067;-60
2021/01/07 03:04:55;;;;;;;13.68;7.72;;;3.40;85.40;;;;;;5075181;28;20032;-61
2021/01/07 03:07:21;;;;;;;11.40;7.35;;;3.40;85.40;;;;;;5078488;28;20032;-60
2021/01/07 03:09:47;;;;;;;12.63;7.25;;;3.50;85.30;;;;;;5078256;28;20685;-60
2021/01/07 03:12:15;;;;;;;13.70;7.05;;;3.50;85.30;;;;;;5081202;28;20043;-60
2021/01/07 03:14:41;;;;;;;11.32;6.47;;;3.50;85.10;;;;;;5082370;28;20089;-60
2021/01/07 03:17:07;;;;;;;12.57;6.95;;;3.50;84.80;;;;;;5078161;28;20057;-60
2021/01/07 03:19:33;;;;;;;11.98;6.60;;;3.60;85.20;;;;;;5082097;28;20143;-60
2021/01/07 03:21:58;;;;;;;14.07;7.68;;;3.60;84.80;;;;;;5082309;28;20032;-60
2021/01/07 03:24:24;;;;;;;11.32;6.80;;;3.60;84.60;;;;;;5080811;28;20361;-60
2021/01/07 03:26:50;;;;;;;12.63;6.63;;;3.70;84.50;;;;;;5081521;28;20040;-60
2021/01/07 03:29:15;;;;;;;13.48;7.38;;;3.70;84.30;;;;;;5081864;28;20032;-60
2021/01/07 03:31:41;;;;;;;12.82;7.15;;;3.70;84.00;;;;;;5071268;28;20031;-60
2021/01/07 03:34:06;;;;;;;11.98;7.03;;;3.70;83.70;;;;;;5081973;28;20024;-61
2021/01/07 03:36:32;;;;;;;9.90;6.40;;;3.70;84.00;;;;;;5081119;28;20035;-61
2021/01/07 03:38:58;;;;;;;13.55;7.53;;;3.70;83.80;;;;;;5062603;28;20028;-60
2021/01/07 03:41:23;;;;;;;13.25;6.72;;;3.70;84.10;;;;;;5081602;28;20047;-60
2021/01/07 03:43:49;;;;;;;11.65;7.25;;;3.70;84.00;;;;;;5081697;28;20055;-60
2021/01/07 03:46:15;;;;;;;11.40;7.43;;;3.60;84.00;;;;;;5080318;28;20527;-60
2021/01/07 03:48:40;;;;;;;12.20;6.85;;;3.60;84.40;;;;;;5081144;28;20127;-60
2021/01/07 03:51:06;;;;;;;11.25;6.35;;;3.60;84.30;;;;;;5080923;28;20036;-60
2021/01/07 03:53:31;;;;;;;12.05;5.93;;;3.60;84.10;;;;;;5081406;28;20032;-61
2021/01/07 03:55:57;;;;;;;11.18;6.70;;;3.70;84.10;;;;;;5079185;28;20039;-60
2021/01/07 03:58:23;;;;;;;11.13;6.80;;;3.70;83.90;;;;;;5068372;28;20251;-60
2021/01/07 04:00:49;;;;;;;10.68;6.28;;;3.70;83.90;;;;;;5081768;28;20541;-61
2021/01/07 04:03:14;;;;;;;9.82;6.45;;;3.70;83.60;;;;;;5081538;28;20090;-60
2021/01/07 04:05:40;;;;;;;12.13;6.32;;;3.70;83.50;;;;;;5081700;28;20089;-60
2021/01/07 04:08:05;;;;;;;10.35;5.93;;;3.70;83.60;;;;;;5080815;28;20040;-61
2021/01/07 04:10:31;;;;;;;11.48;6.47;;;3.70;83.50;;;;;;5081669;28;20039;-60
2021/01/07 04:12:57;;;;;;;11.30;6.45;;;3.70;83.90;;;;;;5077965;28;20032;-60
2021/01/07 04:15:22;;;;;;;9.15;5.97;;;3.50;83.90;;;;;;5080139;28;20031;-60
2021/01/07 04:17:48;;;;;;;11.80;6.28;;;3.50;84.40;;;;;;5081379;28;20820;-61
2021/01/07 04:20:13;;;;;;;11.43;6.50;;;3.50;84.90;;;;;;5081103;28;20068;-60
2021/01/07 04:22:40;;;;;;;14.35;7.15;;;3.40;84.80;;;;;;5080278;28;20035;-60
2021/01/07 04:25:08;;;;;;;11.90;6.53;;;3.40;85.10;;;;;;5080652;28;20044;-60
2021/01/07 04:27:34;;;;;;;10.10;6.40;;;3.40;84.80;;;;;;5081054;28;20051;-60
2021/01/07 04:30:00;;;;;;;11.35;6.20;;;3.40;85.00;;;;;;5079903;28;20040;-61
2021/01/07 04:32:25;;;;;;;10.77;6.05;;;3.50;85.00;;;;;;5080652;28;20064;-60
2021/01/07 04:34:51;;;;;;;10.93;6.05;;;3.50;85.00;;;;;;5080908;28;20039;-60
2021/01/07 04:37:17;;;;;;;10.57;6.32;;;3.60;84.80;;;;;;5080073;28;20028;-61
2021/01/07 04:39:42;;;;;;;9.48;6.10;;;3.60;84.40;;;;;;5081168;28;20086;-60
2021/01/07 04:42:08;;;;;;;9.85;5.70;;;3.60;84.10;;;;;;5080796;28;20267;-60
2021/01/07 04:44:35;;;;;;;10.75;6.85;;;3.60;84.20;;;;;;5062137;28;20036;-61
2021/01/07 04:47:02;;;;;;;9.32;5.93;;;3.60;84.40;;;;;;5077049;28;20130;-61
2021/01/07 04:49:29;;;;;;;10.10;6.07;;;3.60;85.00;;;;;;5080376;28;20085;-60
2021/01/07 04:51:58;;;;;;;10.15;6.18;;;3.70;84.20;;;;;;5079636;28;20160;-60
2021/01/07 04:54:24;;;;;;;13.07;6.55;;;3.70;83.70;;;;;;5080828;28;20551;-60
2021/01/07 04:56:50;;;;;;;11.82;6.78;;;3.70;83.50;;;;;;5074945;28;20024;-60
2021/01/07 04:59:16;;;;;;;8.10;5.22;;;3.70;83.00;;;;;;5079887;28;20399;-60
2021/01/07 05:01:42;;;;;;;9.65;6.15;;;3.70;83.50;;;;;;5061685;28;20036;-60
2021/01/07 05:04:10;;;;;;;12.43;6.15;;;3.70;83.10;;;;;;5079937;28;20032;-61
2021/01/07 05:06:36;;;;;;;10.43;6.28;;;3.70;83.40;;;;;;5079313;28;20036;-60
2021/01/07 05:09:06;;;;;;;9.38;5.65;;;3.70;83.40;;;;;;5079752;28;20028;-60
2021/01/07 05:11:33;;;;;;;8.75;5.47;;;3.70;83.40;;;;;;5080308;28;20032;-60
2021/01/07 05:14:03;;;;;;;10.80;6.32;;;3.70;83.40;;;;;;5061089;28;20059;-60
2021/01/07 05:16:29;;;;;;;9.32;5.65;;;3.60;83.40;;;;;;5079991;28;20438;-60
2021/01/07 05:18:55;;;;;;;10.00;5.78;;;3.50;83.90;;;;;;5079795;28;20090;-60
2021/01/07 05:21:21;;;;;;;11.40;5.60;;;3.60;84.10;;;;;;5079479;28;20039;-60
2021/01/07 05:23:49;;;;;;;9.85;6.15;;;3.50;83.70;;;;;;5079955;28;20118;-60
2021/01/07 05:26:17;;;;;;;8.93;5.45;;;3.50;84.00;;;;;;5075913;28;20039;-60
2021/01/07 05:28:48;;;;;;;11.57;5.93;;;3.40;84.10;;;;;;5069679;28;20073;-60
2021/01/07 05:31:22;;;;;;;9.52;4.95;;;3.50;84.80;;;;;;5079043;28;20039;-60
2021/01/07 05:33:48;;;;;;;9.13;5.65;;;3.50;84.80;;;;;;5079148;28;20479;-60
2021/01/07 05:36:21;;;;;;;9.45;5.85;;;3.50;84.20;;;;;;5078667;28;20039;-60
2021/01/07 05:38:48;;;;;;;10.25;6.22;;;3.60;84.20;;;;;;5079501;28;20043;-60
2021/01/07 05:41:15;;;;;;;8.70;5.32;;;3.60;83.70;;;;;;5075892;28;20265;-60
2021/01/07 05:43:42;;;;;;;10.75;6.15;;;3.50;83.90;;;;;;5061177;28;20036;-60
2021/01/07 05:46:09;;;;;;;9.48;6.05;;;3.50;84.30;;;;;;5060309;28;20039;-61
2021/01/07 05:48:35;;;;;;;11.15;6.75;;;3.50;84.30;;;;;;5079201;28;20032;-60
2021/01/07 05:51:04;;;;;;;10.27;6.25;;;3.40;84.40;;;;;;5078530;28;20533;-61
2021/01/07 05:53:30;;;;;;;11.25;7.13;;;3.50;84.90;;;;;;5079080;28;20039;-60
2021/01/07 05:55:56;;;;;;;10.88;6.25;;;3.50;85.20;;;;;;5078719;28;20036;-63
2021/01/07 05:58:23;;;;;;;10.57;6.05;;;3.50;84.90;;;;;;5075762;28;20051;-64
2021/01/07 06:00:51;;;;;;;10.35;6.22;;;3.40;85.20;;;;;;5075407;28;20123;-63
2021/01/07 06:03:19;;;;;;;11.35;6.38;;;3.40;85.50;;;;;;5078989;28;20058;-63
2021/01/07 06:05:46;;;;;;;11.20;6.57;;;3.40;85.20;;;;;;5075364;28;20032;-64
2021/01/07 06:08:16;;;;;;;11.25;6.32;;;3.40;85.00;;;;;;5079011;28;20136;-64
2021/01/07 06:10:47;;;;;;;11.40;6.78;;;3.40;85.20;;;;;;5079050;28;20039;-64
2021/01/07 06:13:13;;;;;;;11.88;6.63;;;3.30;85.90;;;;;;5070651;28;20040;-64
2021/01/07 06:15:40;;;;;;;10.73;6.32;;;3.30;85.90;;;;;;5073280;28;20357;-64
2021/01/07 06:18:06;;;;;;;10.48;6.40;;;3.30;85.70;;;;;;5069863;28;20040;-64
2021/01/07 06:20:33;;;;;;;11.18;6.47;;;3.40;86.00;;;;;;5063944;28;20036;-64
2021/01/07 06:23:00;;;;;;;10.65;6.57;;;3.40;85.10;;;;;;5056281;28;20036;-64
2021/01/07 06:25:26;;;;;;;12.02;6.47;;;3.30;85.70;;;;;;5059897;28;20506;-64
2021/01/07 06:27:52;;;;;;;11.88;6.95;;;3.30;85.20;;;;;;5063381;28;20037;-64
2021/01/07 06:30:18;;;;;;;11.85;7.00;;;3.30;85.50;;;;;;5061242;28;20174;-64
2021/01/07 06:32:46;;;;;;;10.43;6.55;;;3.30;85.80;;;;;;5066214;28;20119;-64
2021/01/07 06:35:17;;;;;;;10.13;6.10;;;3.30;85.60;;;;;;5058107;28;20042;-64
2021/01/07 06:37:51;;;;;;;11.77;6.90;;;3.30;85.50;;;;;;5060302;28;20175;-64
2021/01/07 06:40:21;;;;;;;11.82;6.85;;;3.30;85.70;;;;;;5063703;28;20055;-64
2021/01/07 06:42:51;;;;;;;10.90;6.63;;;3.30;85.70;;;;;;5056833;28;20044;-64
2021/01/07 06:45:23;;;;;;;9.40;5.82;;;3.40;85.80;;;;;;5071099;28;20499;-64
2021/01/07 06:47:52;;;;;;;10.13;6.10;;;3.40;85.20;;;;;;5062631;28;20040;-64
2021/01/07 06:50:18;;;;;;;10.02;6.07;;;3.40;84.90;;;;;;5055819;28;20057;-64
2021/01/07 06:52:46;;;;;;;11.52;6.75;;;3.40;85.20;;;;;;5062169;28;20434;-64
2021/01/07 06:55:19;;;;;;;11.50;6.57;;;3.30;84.90;;;;;;5067434;28;20029;-64
2021/01/07 06:57:45;;;;;;;10.50;5.97;;;3.30;85.70;;;;;;5048461;28;20594;-64
2021/01/07 07:00:16;;;;;;;10.63;6.05;;;3.40;85.20;;;;;;5065598;28;20496;-63
2021/01/07 07:03:00;;;;;;;10.68;6.38;;;3.40;85.40;;;;;;5053676;28;20548;-64
2021/01/07 07:05:34;;;;;;;11.10;6.30;;;3.40;85.40;;;;;;5062637;28;20050;-64
2021/01/07 07:08:10;;;;;;;9.50;5.90;;;3.30;84.90;;;;;;5063219;28;20068;-64
2021/01/07 07:10:39;;;;;;;;;;;3.20;85.80;;;;;;5066550;28;20507;-64
2021/01/07 07:13:19;;;;;;;11.80;6.80;;;3.20;85.70;;;;;;5059931;28;20294;-64
2021/01/07 07:15:47;;;;;;;10.82;6.28;;;3.20;86.10;;;;;;5060129;28;20033;-64
2021/01/07 07:18:12;;;;;;;11.63;6.75;;;3.20;85.90;;;;;;5070650;28;20116;-64
2021/01/07 07:20:40;;;;;;;11.68;7.30;;;3.20;86.40;;;;;;5074505;28;20040;-63
2021/01/07 07:23:17;;;;;;;11.77;6.50;;;3.30;86.20;;;;;;5049290;28;20036;-65
2021/01/07 07:25:52;;;;;;;12.27;6.75;;;3.40;86.00;;;;;;5054788;28;20128;-63
2021/01/07 07:28:19;;;;;;;11.02;6.80;;;3.40;85.80;;;;;;5067233;28;20064;-64
2021/01/07 07:30:48;;;;;;;13.85;7.82;;;3.20;85.30;;;;;;5064772;28;20034;-65
2021/01/07 07:33:33;;;;;;;15.50;7.80;;;3.30;86.00;;;;;;5067689;28;20028;-64
2021/01/07 07:35:59;;;;;;;12.15;6.57;;;3.30;86.10;;;;;;5058657;28;20036;-64
2021/01/07 07:38:39;;;;;;;12.02;6.53;;;3.30;85.90;;;;;;5057055;28;20472;-64
2021/01/07 07:41:08;;;;;;;10.43;6.65;;;3.40;86.30;;;;;;5067049;28;20020;-64
2021/01/07 07:43:35;;;;;;;10.63;6.05;;;3.40;86.00;;;;;;5053443;28;20067;-64
2021/01/07 07:46:03;;;;;;;11.77;6.68;;;3.40;86.50;;;;;;5066582;28;20826;-64
2021/01/07 07:48:29;;;;;;;11.18;6.43;;;3.40;86.60;;;;;;5073399;28;20507;-65
2021/01/07 07:51:12;;;;;;;12.32;6.70;;;3.30;86.10;;;;;;5064553;28;20408;-64
2021/01/07 07:53:39;;;;;;;13.15;7.25;;;3.40;86.00;;;;;;5063907;28;20047;-64
2021/01/07 07:56:18;;;;;;;12.07;6.78;;;3.40;86.30;;;;;;5062922;28;20802;-64
2021/01/07 07:58:44;;;;;;;11.63;6.75;;;3.30;85.90;;;;;;5056749;28;20036;-64
2021/01/07 08:01:10;;;;;;;27.60;14.57;;;3.30;86.40;;;;;;5069266;28;20039;-64
2021/01/07 08:03:35;;;;;;;22.15;13.60;;;3.30;85.80;;;;;;5068228;28;20111;-64
2021/01/07 08:06:01;;;;;;;14.63;9.65;;;3.30;85.90;;;;;;5055958;28;20499;-65
2021/01/07 08:08:32;;;;;;;14.98;9.63;;;3.30;85.60;;;;;;5069811;28;20032;-64
2021/01/07 08:10:59;;;;;;;13.07;7.70;;;3.30;86.30;;;;;;5068696;28;20086;-63
2021/01/07 08:13:27;;;;;;;15.25;8.48;;;3.30;85.80;;;;;;5063685;28;20036;-64
2021/01/07 08:15:57;;;;;;;10.95;7.28;;;3.40;85.50;;;;;;5059816;28;20033;-64
2021/01/07 08:18:28;;;;;;;13.30;8.48;;;3.40;85.10;;;;;;5059729;28;20028;-64
2021/01/07 08:21:06;;;;;;;10.27;6.68;;;3.40;85.50;;;;;;5055300;28;20048;-64
2021/01/07 08:23:32;;;;;;;10.43;6.90;;;3.30;85.90;;;;;;5067219;28;20560;-64
2021/01/07 08:26:01;;;;;;;10.88;6.80;;;3.40;86.00;;;;;;5060752;28;20113;-64
2021/01/07 08:28:37;;;;;;;10.40;5.70;;;3.40;85.20;;;;;;5068694;28;20045;-64
2021/01/07 08:31:09;;;;;;;13.25;9.57;;;3.50;85.40;;;;;;5063135;28;20429;-64
2021/01/07 08:33:35;;;;;;;12.15;8.07;;;3.50;84.90;;;;;;5059808;28;20029;-64
2021/01/07 08:36:04;;;;;;;19.15;11.05;;;3.60;84.90;;;;;;5059184;28;20069;-64
2021/01/07 08:38:31;;;;;;;7.93;5.05;;;3.60;84.70;;;;;;5065377;28;20050;-64
2021/01/07 08:41:22;;;;;;;13.10;7.57;;;3.60;84.60;;;;;;5057041;28;20154;-64
2021/01/07 08:43:51;;;;;;;14.18;8.07;;;3.60;84.40;;;;;;5060152;28;20119;-63
2021/01/07 08:46:25;;;;;;;19.25;10.25;;;3.60;84.60;;;;;;5056430;28;20675;-63
2021/01/07 08:49:01;;;;;;;14.65;8.05;;;3.60;84.10;;;;;;5045719;28;20839;-64
2021/01/07 08:51:35;;;;;;;14.07;8.07;;;3.50;83.90;;;;;;5056461;28;20760;-64
2021/01/07 08:54:08;;;;;;;14.00;9.00;;;3.50;84.40;;;;;;5060829;28;20570;-64
2021/01/07 08:56:36;;;;;;;17.50;9.45;;;3.50;85.30;;;;;;5068046;28;20040;-64
2021/01/07 08:59:27;;;;;;;13.18;7.95;;;3.40;84.70;;;;;;5049966;28;20021;-64
2021/01/07 09:01:56;;;;;;;8.00;5.15;;;3.50;84.90;;;;;;5059236;28;20036;-63
2021/01/07 09:04:41;;;;;;;14.40;7.53;;;3.60;84.60;;;;;;5051080;28;20048;-63
2021/01/07 09:07:07;;;;;;;11.13;6.25;;;3.70;84.50;;;;;;5060451;28;20059;-64
2021/01/07 09:09:54;;;;;;;11.68;6.47;;;3.80;84.40;;;;;;5060926;28;20032;-64
2021/01/07 09:12:23;;;;;;;;;;;3.80;84.10;;;;;;5051438;28;20071;-63
2021/01/07 09:14:52;;;;;;;15.68;7.85;;;3.90;83.40;;;;;;5059028;28;19913;-64
2021/01/07 09:17:23;;;;;;;7.40;4.45;;;3.90;83.20;;;;;;5073616;28;20024;-63
2021/01/07 09:19:50;;;;;;;8.02;5.65;;;3.90;83.40;;;;;;5059615;28;20079;-63
2021/01/07 09:22:21;;;;;;;6.75;4.57;;;4.00;83.60;;;;;;5062212;28;20078;-63
2021/01/07 09:24:47;;;;;;;8.35;5.15;;;4.00;82.90;;;;;;5059122;28;20068;-63
2021/01/07 09:27:20;;;;;;;8.73;5.60;;;4.10;82.80;;;;;;5038957;28;20115;-63
2021/01/07 09:29:46;;;;;;;8.05;5.85;;;4.20;82.10;;;;;;5059972;28;20051;-63
2021/01/07 09:32:13;;;;;;;10.15;5.70;;;4.20;81.70;;;;;;5061247;28;20571;-63
2021/01/07 09:34:39;;;;;;;10.18;5.72;;;4.20;80.80;;;;;;5058102;28;20844;-64
2021/01/07 09:37:11;;;;;;;8.98;5.20;;;4.10;81.70;;;;;;5065133;28;20386;-63
2021/01/07 09:39:37;;;;;;;8.13;4.10;;;4.10;81.60;;;;;;5050414;28;20519;-63
2021/01/07 09:42:04;;;;;;;10.95;6.80;;;4.10;82.00;;;;;;5057518;28;20052;-63
2021/01/07 09:44:31;;;;;;;12.48;7.25;;;4.10;81.60;;;;;;5060083;28;20085;-63
2021/01/07 09:46:58;;;;;;;6.60;4.28;;;4.10;82.00;;;;;;5059821;28;20143;-63
2021/01/07 09:49:24;;;;;;;6.18;4.28;;;4.20;81.80;;;;;;5067010;28;20040;-63
2021/01/07 09:51:51;;;;;;;6.65;4.22;;;4.30;81.30;;;;;;5064934;28;20024;-64
2021/01/07 09:54:17;;;;;;;8.48;5.45;;;4.30;80.70;;;;;;5052416;28;20389;-64
2021/01/07 09:56:43;;;;;;;6.47;4.15;;;4.30;81.20;;;;;;5040344;28;20048;-63
2021/01/07 09:59:09;;;;;;;6.35;4.07;;;4.40;80.60;;;;;;5056522;28;20040;-63
2021/01/07 10:01:35;;;;;;;6.07;4.28;;;4.40;80.10;;;;;;5070309;28;20757;-65
2021/01/07 10:04:00;;;;;;;6.90;4.82;;;4.40;79.80;;;;;;5061614;28;20044;-64
2021/01/07 10:06:26;;;;;;;6.90;4.25;;;4.40;79.70;;;;;;5057593;28;20032;-72
2021/01/07 10:08:52;;;;;;;5.60;4.18;;;4.30;80.30;;;;;;5058873;28;20103;-69
2021/01/07 10:11:18;;;;;;;5.50;4.28;;;4.10;79.70;;;;;;5060721;28;20871;-63
2021/01/07 10:13:43;;;;;;;5.95;4.32;;;4.00;81.10;;;;;;5064575;28;20033;-63
2021/01/07 10:16:14;;;;;;;8.13;4.25;;;4.00;81.80;;;;;;5059255;28;20812;-64
2021/01/07 10:18:43;;;;;;;15.82;13.02;;;4.10;81.80;;;;;;5062250;28;20377;-64
2021/01/07 10:21:14;;;;;;;9.32;6.28;;;4.20;81.80;;;;;;5061965;28;20029;-63
2021/01/07 10:23:44;;;;;;;7.32;5.43;;;4.20;80.60;;;;;;5046289;28;20439;-73
2021/01/07 10:26:10;;;;;;;6.43;4.97;;;4.10;81.20;;;;;;5058812;28;20396;-63
2021/01/07 10:28:37;;;;;;;9.02;6.05;;;4.10;81.70;;;;;;5064173;28;20047;-64
2021/01/07 10:31:04;;;;;;;6.55;5.13;;;4.20;81.80;;;;;;5054890;28;20044;-64
2021/01/07 10:33:33;;;;;;;7.32;5.18;;;4.30;81.30;;;;;;5057819;28;20043;-63
2021/01/07 10:36:00;;;;;;;9.52;6.05;;;4.20;81.30;;;;;;5062325;28;20036;-64
2021/01/07 10:38:26;;;;;;;10.93;6.45;;;4.30;81.50;;;;;;5058480;28;20036;-65
2021/01/07 10:40:53;;;;;;;6.43;4.47;;;4.30;81.30;;;;;;5071303;28;20138;-64
2021/01/07 10:43:22;;;;;;;6.85;4.55;;;4.20;81.20;;;;;;5069441;28;20039;-63
2021/01/07 10:45:53;;;;;;;10.43;6.68;;;4.30;81.40;;;;;;5060234;28;20043;-64
2021/01/07 10:48:23;;;;;;;9.05;5.60;;;4.30;80.90;;;;;;5057738;28;20037;-63
2021/01/07 10:50:50;;;;;;;6.97;5.15;;;4.30;81.20;;;;;;5069880;28;20032;-63
2021/01/07 10:53:55;;;;;;;7.57;5.07;;;4.20;80.50;;;;;;5042649;28;20144;-63
2021/01/07 10:56:29;;;;;;;6.40;4.30;;;4.20;81.10;;;;;;5023164;28;20123;-63
2021/01/07 10:59:31;;;;;;;5.63;4.00;;;4.20;80.00;;;;;;5062924;28;20040;-63
2021/01/07 11:02:31;;;;;;;5.95;4.85;;;4.30;80.90;;;;;;5063353;28;20056;-63
2021/01/07 11:05:07;;;;;;;7.32;4.72;;;4.20;80.70;;;;;;5063638;28;20028;-63
2021/01/07 11:07:38;;;;;;;7.40;5.07;;;4.30;80.80;;;;;;5066964;28;20435;-64
2021/01/07 11:10:06;;;;;;;5.45;4.70;;;4.40;80.90;;;;;;5047750;28;20040;-63
2021/01/07 11:12:40;;;;;;;7.40;4.97;;;4.30;79.80;;;;;;5052927;28;20507;-64
2021/01/07 11:15:12;;;;;;;6.18;4.47;;;4.20;80.10;;;;;;5054187;28;20115;-64
2021/01/07 11:17:46;;;;;;;6.65;4.88;;;4.20;80.20;;;;;;5057516;28;20032;-64
2021/01/07 11:20:13;;;;;;;11.20;6.55;;;4.30;81.00;;;;;;5068652;28;20043;-64
2021/01/07 11:22:40;;;;;;;10.15;6.25;;;4.30;80.60;;;;;;5058394;28;20051;-64
2021/01/07 11:25:07;;;;;;;9.25;5.75;;;4.30;80.60;;;;;;5065117;28;20668;-64
2021/01/07 11:27:35;;;;;;;8.68;6.55;;;4.30;80.50;;;;;;5059379;28;20028;-64
2021/01/07 11:30:04;;;;;;;14.57;7.68;;;4.20;80.00;;;;;;5064226;28;20036;-64
2021/01/07 11:32:30;;;;;;;8.48;5.25;;;4.20;81.10;;;;;;5065127;28;20033;-64
2021/01/07 11:34:59;;;;;;;14.50;6.95;;;4.20;80.00;;;;;;5064614;28;20681;-65
2021/01/07 11:37:51;;;;;;;11.93;6.05;;;4.20;80.90;;;;;;5069114;28;20094;-64
2021/01/07 11:40:48;;;;;;;11.57;7.38;;;4.20;81.00;;;;;;5071896;28;20037;-63
2021/01/07 11:43:32;;;;;;;8.13;5.25;;;4.10;80.60;;;;;;5057700;28;20048;-64
2021/01/07 11:46:02;;;;;;;12.93;6.10;;;4.20;80.80;;;;;;5059072;28;20058;-64
2021/01/07 11:48:30;;;;;;;10.60;4.90;;;4.20;80.40;;;;;;5066091;28;20032;-64
2021/01/07 11:51:05;;;;;;;14.63;6.85;;;4.20;80.50;;;;;;5073312;28;20127;-64
2021/01/07 11:53:31;;;;;;;6.13;4.47;;;4.10;80.00;;;;;;5061420;28;20039;-64
2021/01/07 11:55:58;;;;;;;7.35;4.80;;;4.10;80.30;;;;;;5069424;28;20689;-64
2021/01/07 11:58:24;;;;;;;8.15;5.18;;;4.20;80.60;;;;;;5070239;28;20519;-63
2021/01/07 12:00:55;;;;;;;6.75;4.50;;;4.20;79.50;;;;;;5065403;28;20166;-64
2021/01/07 12:03:32;;;;;;;21.45;7.10;;;4.20;80.10;;;;;;5056680;28;20241;-66
2021/01/07 12:06:02;;;;;;;12.93;5.68;;;4.30;80.20;;;;;;5055331;28;20041;-63
2021/01/07 12:09:09;;;;;;;7.50;4.45;;;4.40;79.10;;;;;;5055809;28;20127;-63
2021/01/07 12:12:04;;;;;;;13.45;7.03;;;4.40;79.10;;;;;;5063612;28;20048;-63
2021/01/07 12:14:41;;;;;;;7.85;4.28;;;4.40;79.40;;;;;;5038807;28;20041;-64
2021/01/07 12:17:09;;;;;;;6.63;4.85;;;4.40;78.80;;;;;;5043557;28;20509;-66
2021/01/07 12:19:35;;;;;;;10.98;5.75;;;4.30;78.70;;;;;;5059889;28;20028;-61
2021/01/07 12:22:06;;;;;;;7.53;4.88;;;4.30;79.70;;;;;;5064476;28;20501;-60
2021/01/07 12:24:32;;;;;;;7.28;4.70;;;4.30;80.00;;;;;;5062519;28;20036;-59
2021/01/07 12:26:59;;;;;;;11.73;5.57;;;4.20;79.60;;;;;;5066726;28;20039;-60
2021/01/07 12:29:26;;;;;;;7.50;4.38;;;4.20;80.30;;;;;;5062723;28;20040;-63
2021/01/07 12:31:54;;;;;;;8.40;6.40;;;4.30;79.90;;;;;;5060734;28;20497;-59
2021/01/07 12:34:35;;;;;;;7.40;4.32;;;4.30;79.90;;;;;;5064225;28;20036;-61
2021/01/07 12:37:11;;;;;;;7.65;4.85;;;4.40;80.00;;;;;;5070926;28;20042;-63
2021/01/07 12:39:58;;;;;;;7.75;5.38;;;4.50;80.00;;;;;;5063889;28;20041;-63
2021/01/07 12:42:48;;;;;;;5.85;4.05;;;4.50;79.00;;;;;;5066766;28;20903;-62
2021/01/07 12:45:15;;;;;;;10.07;5.38;;;4.40;78.90;;;;;;5057210;28;20063;-62
2021/01/07 12:47:41;;;;;;;6.28;4.78;;;4.50;78.80;;;;;;5059199;28;20037;-66
2021/01/07 12:50:09;;;;;;;6.45;4.70;;;4.50;79.00;;;;;;5060479;28;20043;-68
2021/01/07 12:52:35;;;;;;;9.75;4.88;;;4.50;79.50;;;;;;5066499;28;20146;-64
2021/01/07 12:55:02;;;;;;;6.45;5.03;;;4.50;79.60;;;;;;5061663;28;20166;-61
2021/01/07 12:58:03;;;;;;;5.85;4.55;;;4.50;79.20;;;;;;5065844;28;20646;-61
2021/01/07 13:00:53;;;;;;;6.93;4.45;;;4.50;78.40;;;;;;5069114;28;20044;-62
2021/01/07 13:03:45;;;;;;;7.18;5.32;;;4.40;79.40;;;;;;5057690;28;20028;-61